LBF weather

North Platte Regional Airport Lee Bird Field
North Platte, Nebraska, United States

Public forecast

Using degrees Fahrenheit for public forecast. Weather courtesy of forecast.io.

METAR (pilot weather report)

Retrieved 2019/07/21 00:53 UTC (30 minutes ago):

KLBF 210053Z AUTO 05013KT 10SM FEW028 OVC035 24/18 A2998 RMK AO2 SLP125 T02390183

TAF (pilot weather forecast)

Forecast is more than 12 hours old.

Retrieved 2019/07/20 00:22 UTC (1 day ago):

TAF KLBF 202320Z 2100/2124 04014KT P6SM OVC020 FM210500 03009KT P6SM VCSH OVC040 FM211000 04008KT 5SM BR VCTS OVC019CB FM211500 05006KT P6SM OVC013 FM212000 05009KT P6SM BKN024